createdAt,value
2018-09-22T00:01:33.153Z,66.54
2018-09-22T00:04:00.293Z,66.36
2018-09-22T00:06:27.937Z,66.55
2018-09-22T00:08:54.580Z,65.91
2018-09-22T00:11:22.237Z,65.62
2018-09-22T00:13:48.898Z,64.66
2018-09-22T00:16:16.230Z,64.73
2018-09-22T00:18:42.927Z,64.78
2018-09-22T00:21:10.723Z,64.55
2018-09-22T00:23:41.997Z,64.18
2018-09-22T00:26:08.650Z,64.51
2018-09-22T00:28:35.545Z,63.35
2018-09-22T00:31:02.652Z,63.39
2018-09-22T00:33:29.387Z,62.37
2018-09-22T00:35:56.298Z,62.43
2018-09-22T00:38:23.464Z,62.23
2018-09-22T00:40:50.076Z,62.75
2018-09-22T00:43:18.149Z,61.17
2018-09-22T00:45:47.394Z,60.43
2018-09-22T00:48:15.196Z,61.81
2018-09-22T00:55:46.428Z,60.76
2018-09-22T00:58:15.122Z,60.75
2018-09-22T01:00:44.001Z,61.39
2018-09-22T01:03:15.751Z,61.95
2018-09-22T01:05:42.433Z,62.25
2018-09-22T01:08:09.192Z,63.11
2018-09-22T01:10:36.025Z,62.63
2018-09-22T01:13:02.752Z,63.30
2018-09-22T01:15:29.363Z,63.97
2018-09-22T01:17:56.265Z,63.55
2018-09-22T01:20:22.810Z,63.18
2018-09-22T01:22:50.478Z,62.57
2018-09-22T01:25:20.442Z,61.89
2018-09-22T01:27:47.348Z,62.18
2018-09-22T01:30:15.948Z,61.52
2018-09-22T01:32:43.540Z,61.47
2018-09-22T01:35:12.831Z,61.58
2018-09-22T01:37:42.993Z,61.41
2018-09-22T01:40:13.318Z,62.01
2018-09-22T01:42:42.132Z,61.27
2018-09-22T01:45:11.713Z,60.65
2018-09-22T01:50:11.250Z,59.20
2018-09-22T01:52:38.984Z,59.72
2018-09-22T01:55:08.695Z,59.54
2018-09-22T01:57:36.187Z,59.07
2018-09-22T02:00:04.266Z,58.92
2018-09-22T02:02:30.865Z,59.41
2018-09-22T02:04:57.586Z,58.11
2018-09-22T02:07:27.363Z,57.57
2018-09-22T02:09:54.818Z,55.90
2018-09-22T02:12:22.790Z,55.18
2018-09-22T02:14:49.302Z,55.60
2018-09-22T02:17:15.786Z,56.27
2018-09-22T02:19:42.933Z,53.89
2018-09-22T02:22:11.457Z,53.40
2018-09-22T02:24:38.173Z,54.11
2018-09-22T02:27:07.202Z,50.79
2018-09-22T02:29:41.799Z,52.16
2018-09-22T02:32:09.966Z,51.72
2018-09-22T02:34:40.133Z,50.45
2018-09-22T02:37:09.330Z,50.93
2018-09-22T02:39:39.567Z,49.56
2018-09-22T02:42:09.230Z,50.17
2018-09-22T02:44:35.879Z,49.64
2018-09-22T02:47:03.996Z,49.43
2018-09-22T02:49:30.935Z,47.45
2018-09-22T02:52:02.106Z,49.46
2018-09-22T02:54:31.717Z,48.54
2018-09-22T02:56:59.654Z,48.67
2018-09-22T02:59:26.972Z,46.08
2018-09-22T03:01:53.547Z,45.26
2018-09-22T03:06:52.258Z,44.30
2018-09-22T03:09:19.974Z,49.32
2018-09-22T03:11:49.775Z,47.13
2018-09-22T03:14:16.994Z,47.84
2018-09-22T03:16:44.413Z,47.75
2018-09-22T03:19:11.733Z,47.40
2018-09-22T03:21:38.294Z,46.42
2018-09-22T03:24:04.943Z,49.66
2018-09-22T03:26:33.252Z,50.21
2018-09-22T03:31:32.060Z,52.88
2018-09-22T03:33:58.888Z,52.47
2018-09-22T03:36:28.082Z,54.39
2018-09-22T03:38:55.690Z,55.01
2018-09-22T03:41:24.231Z,56.74
2018-09-22T03:43:51.137Z,54.56
2018-09-22T03:46:20.401Z,57.45
2018-09-22T03:48:48.103Z,58.06
2018-09-22T03:51:14.729Z,58.63
2018-09-22T03:53:43.459Z,59.84
2018-09-22T03:56:10.713Z,59.66
2018-09-22T03:58:37.360Z,60.43
2018-09-22T04:01:05.175Z,60.10
2018-09-22T04:03:31.860Z,60.53
2018-09-22T04:05:58.981Z,59.93
2018-09-22T04:08:26.450Z,60.31
2018-09-22T04:10:53.195Z,60.35
2018-09-22T04:13:19.897Z,60.09
2018-09-22T04:15:46.783Z,61.43
2018-09-22T04:18:13.420Z,60.72
2018-09-22T04:20:42.241Z,62.88
2018-09-22T04:23:10.784Z,62.70
2018-09-22T04:25:37.463Z,61.71
2018-09-22T04:28:04.260Z,61.97
2018-09-22T04:30:30.994Z,60.94
2018-09-22T04:32:57.771Z,61.46
2018-09-22T04:35:25.763Z,61.17
2018-09-22T04:37:52.444Z,60.26
2018-09-22T04:40:19.153Z,60.62
2018-09-22T04:42:45.824Z,58.49
2018-09-22T04:45:12.598Z,59.57
2018-09-22T04:47:40.197Z,59.81
2018-09-22T04:50:07.033Z,59.46
2018-09-22T04:52:36.236Z,59.74
2018-09-22T04:55:02.799Z,60.90
2018-09-22T04:57:29.294Z,61.30
2018-09-22T04:59:55.904Z,60.60
2018-09-22T05:02:22.396Z,59.68
2018-09-22T05:04:48.971Z,61.51
2018-09-22T05:09:48.795Z,60.31
2018-09-22T05:12:18.004Z,61.57
2018-09-22T05:14:44.604Z,61.39
2018-09-22T05:17:11.298Z,60.12
2018-09-22T05:19:37.924Z,59.85
2018-09-22T05:22:04.444Z,59.66
2018-09-22T05:24:31.122Z,59.60
2018-09-22T05:26:57.644Z,62.16
2018-09-22T05:29:24.231Z,62.26
2018-09-22T05:31:50.796Z,61.20
2018-09-22T05:34:17.371Z,61.70
2018-09-22T05:36:43.844Z,62.75
2018-09-22T05:39:10.458Z,62.68
2018-09-22T05:41:36.999Z,62.83
2018-09-22T05:44:03.635Z,63.63
2018-09-22T05:46:30.126Z,62.34
2018-09-22T05:48:56.583Z,64.38
2018-09-22T05:51:23.031Z,64.75
2018-09-22T05:53:49.591Z,64.60
2018-09-22T05:56:16.115Z,64.60
2018-09-22T05:58:42.628Z,64.93
2018-09-22T06:01:09.421Z,65.42
2018-09-22T06:03:35.906Z,65.87
2018-09-22T06:06:02.630Z,64.78
2018-09-22T06:08:30.208Z,64.93
2018-09-22T06:10:56.730Z,65.11
2018-09-22T06:13:23.184Z,65.46
2018-09-22T06:15:49.779Z,66.15
2018-09-22T06:18:16.946Z,65.37
2018-09-22T06:20:43.536Z,65.07
2018-09-22T06:23:10.167Z,66.78
2018-09-22T06:25:36.775Z,65.75
2018-09-22T06:28:03.257Z,64.42
2018-09-22T06:30:29.807Z,63.50
2018-09-22T06:32:56.305Z,63.63
2018-09-22T06:35:22.810Z,63.74
2018-09-22T06:37:49.348Z,62.32
2018-09-22T06:40:16.059Z,62.83
2018-09-22T06:42:42.767Z,62.40
2018-09-22T06:45:09.294Z,62.28
2018-09-22T06:47:35.795Z,61.25
2018-09-22T06:50:02.259Z,60.24
2018-09-22T06:52:30.343Z,61.65
2018-09-22T06:54:56.901Z,62.20
2018-09-22T06:57:23.431Z,63.99
2018-09-22T06:59:49.933Z,64.04
2018-09-22T07:02:16.400Z,63.58
2018-09-22T07:04:42.939Z,64.00
2018-09-22T07:07:09.441Z,63.54
2018-09-22T07:09:35.946Z,62.66
2018-09-22T07:12:02.421Z,62.47
2018-09-22T07:14:29.324Z,61.52
2018-09-22T07:16:55.962Z,62.27
2018-09-22T07:19:22.543Z,62.18
2018-09-22T07:21:49.401Z,62.81
2018-09-22T07:24:15.892Z,60.70
2018-09-22T07:26:42.407Z,61.64
2018-09-22T07:29:08.984Z,61.90
2018-09-22T07:31:35.511Z,61.49
2018-09-22T07:34:02.062Z,62.14
2018-09-22T07:36:28.623Z,62.27
2018-09-22T07:38:55.162Z,62.19
2018-09-22T07:41:22.132Z,61.91
2018-09-22T07:43:49.732Z,62.19
2018-09-22T07:46:16.185Z,62.34
2018-09-22T07:48:42.777Z,63.17
2018-09-22T07:51:09.511Z,62.38
2018-09-22T07:53:35.988Z,61.45
2018-09-22T07:56:02.550Z,61.06
2018-09-22T07:58:29.087Z,62.43
2018-09-22T08:00:56.040Z,60.82
2018-09-22T08:03:22.557Z,62.23
2018-09-22T08:05:50.240Z,62.61
2018-09-22T08:08:16.814Z,63.38
2018-09-22T08:10:43.498Z,64.17
2018-09-22T08:13:10.051Z,64.41
2018-09-22T08:15:36.586Z,63.57
2018-09-22T08:18:03.143Z,63.82
2018-09-22T08:20:29.651Z,64.39
2018-09-22T08:22:56.159Z,63.45
2018-09-22T08:25:23.327Z,63.25
2018-09-22T08:27:50.653Z,62.30
2018-09-22T08:30:17.229Z,61.89
2018-09-22T08:32:43.778Z,61.75
2018-09-22T08:35:10.489Z,62.21
2018-09-22T08:37:37.090Z,62.89
2018-09-22T08:40:03.617Z,62.46
2018-09-22T08:42:31.175Z,62.69
2018-09-22T08:44:57.718Z,62.52
2018-09-22T08:47:24.355Z,62.78
2018-09-22T08:49:50.892Z,61.78
2018-09-22T08:52:17.637Z,61.82
2018-09-22T08:54:44.155Z,62.53
2018-09-22T08:57:10.829Z,62.23
2018-09-22T08:59:37.366Z,62.70
2018-09-22T09:02:03.909Z,62.88
2018-09-22T09:07:02.699Z,62.06
2018-09-22T09:09:29.444Z,64.18
2018-09-22T09:11:55.975Z,64.08
2018-09-22T09:14:22.518Z,64.19
2018-09-22T09:16:49.113Z,64.39
2018-09-22T09:19:15.611Z,64.09
2018-09-22T09:21:42.373Z,63.57
2018-09-22T09:24:08.943Z,62.06
2018-09-22T09:26:35.778Z,62.67
2018-09-22T09:29:02.486Z,60.66
2018-09-22T09:31:29.099Z,60.57
2018-09-22T09:33:55.686Z,61.38
2018-09-22T09:36:24.242Z,62.08
2018-09-22T09:38:52.923Z,61.17
2018-09-22T09:41:19.526Z,61.08
2018-09-22T09:43:46.275Z,61.85
2018-09-22T09:46:13.344Z,62.55
2018-09-22T09:48:39.974Z,63.15
2018-09-22T09:51:06.607Z,63.27
2018-09-22T09:53:33.348Z,63.44
2018-09-22T09:55:59.828Z,62.36
2018-09-22T09:58:26.493Z,62.43
2018-09-22T10:00:54.399Z,61.74
2018-09-22T10:03:20.939Z,60.07
2018-09-22T10:05:48.754Z,60.18
2018-09-22T10:08:16.080Z,60.57
2018-09-22T10:10:43.424Z,61.30
2018-09-22T10:13:10.006Z,60.94
2018-09-22T10:15:37.207Z,60.56
2018-09-22T10:18:03.865Z,60.02
2018-09-22T10:20:31.379Z,61.29
2018-09-22T10:22:59.337Z,61.36
2018-09-22T10:25:26.800Z,59.94
2018-09-22T10:27:54.084Z,57.22
2018-09-22T10:30:21.271Z,60.11
2018-09-22T10:32:48.572Z,58.42
2018-09-22T10:35:15.322Z,58.14
2018-09-22T10:37:42.060Z,59.70
2018-09-22T10:40:08.584Z,59.91
2018-09-22T10:42:36.622Z,60.78
2018-09-22T10:45:03.353Z,58.53
2018-09-22T10:47:30.510Z,60.02
2018-09-22T10:49:57.249Z,60.21
2018-09-22T10:52:24.909Z,59.42
2018-09-22T10:54:51.427Z,60.29
2018-09-22T10:57:18.062Z,59.88
2018-09-22T10:59:44.644Z,60.13
2018-09-22T11:02:11.317Z,59.22
2018-09-22T11:07:09.731Z,60.56
2018-09-22T11:09:36.318Z,61.30
2018-09-22T11:12:02.988Z,61.65
2018-09-22T11:19:36.600Z,60.46
2018-09-22T11:22:03.130Z,60.46
2018-09-22T11:24:29.694Z,61.29
2018-09-22T11:32:01.531Z,59.24
2018-09-22T11:34:28.009Z,60.99
2018-09-22T11:36:54.544Z,60.74
2018-09-22T11:39:21.081Z,59.84
2018-09-22T11:41:47.638Z,59.28
2018-09-22T11:44:14.167Z,60.14
2018-09-22T11:46:40.777Z,59.62
2018-09-22T11:49:07.839Z,60.83
2018-09-22T11:51:34.396Z,60.25
2018-09-22T11:54:00.967Z,60.59
2018-09-22T11:56:28.035Z,61.32
2018-09-22T11:58:54.777Z,60.78
2018-09-22T12:01:22.220Z,59.51
2018-09-22T12:03:48.776Z,59.78
2018-09-22T12:06:16.456Z,59.73
2018-09-22T12:08:48.109Z,57.41
2018-09-22T12:11:14.671Z,57.58
2018-09-22T12:13:42.463Z,58.15
2018-09-22T12:16:09.001Z,58.59
2018-09-22T12:18:35.654Z,59.38
2018-09-22T12:21:02.218Z,59.38
2018-09-22T12:23:29.062Z,59.45
2018-09-22T12:25:55.588Z,58.18
2018-09-22T12:28:22.106Z,59.51
2018-09-22T12:33:24.030Z,60.87
2018-09-22T12:38:22.238Z,62.64
2018-09-22T12:40:51.876Z,62.50
2018-09-22T12:43:18.476Z,63.07
2018-09-22T12:45:45.164Z,63.05
2018-09-22T12:48:11.704Z,61.74
2018-09-22T12:50:38.204Z,60.12
2018-09-22T12:53:05.540Z,58.98
2018-09-22T12:58:04.498Z,58.49
2018-09-22T13:00:31.009Z,57.26
2018-09-22T13:02:57.641Z,58.28
2018-09-22T13:05:24.422Z,58.87
2018-09-22T13:07:50.952Z,58.38
2018-09-22T13:10:18.608Z,59.79
2018-09-22T13:15:16.928Z,59.21
2018-09-22T13:17:43.442Z,59.99
2018-09-22T13:20:09.960Z,60.06
2018-09-22T13:22:36.741Z,60.10
2018-09-22T13:25:03.338Z,59.88
2018-09-22T13:27:29.983Z,58.10
2018-09-22T13:29:56.518Z,58.73
2018-09-22T13:32:23.175Z,58.65
2018-09-22T13:34:49.969Z,59.48
2018-09-22T13:37:16.639Z,60.72
2018-09-22T13:39:43.301Z,59.54
2018-09-22T13:42:09.842Z,60.84
2018-09-22T13:44:36.380Z,60.53
2018-09-22T13:47:02.997Z,61.73
2018-09-22T13:49:31.045Z,61.13
2018-09-22T13:51:57.803Z,60.48
2018-09-22T13:54:24.390Z,59.92
2018-09-22T13:56:50.931Z,61.43
2018-09-22T13:59:17.419Z,61.32
2018-09-22T14:01:43.937Z,61.68
2018-09-22T14:04:10.448Z,59.89
2018-09-22T14:06:37.000Z,61.07
2018-09-22T14:09:04.520Z,61.25
2018-09-22T14:11:31.064Z,61.45
2018-09-22T14:13:57.598Z,61.03
2018-09-22T14:16:24.221Z,61.22
2018-09-22T14:18:50.902Z,61.15
2018-09-22T14:23:49.093Z,59.02
2018-09-22T14:26:15.961Z,59.04
2018-09-22T14:28:42.690Z,60.55
2018-09-22T14:31:10.444Z,60.53
2018-09-22T14:33:37.012Z,60.71
2018-09-22T14:36:04.308Z,59.54
2018-09-22T14:38:34.786Z,60.09
2018-09-22T14:41:03.280Z,60.74
2018-09-22T14:43:29.833Z,60.74
2018-09-22T14:48:30.075Z,59.62
2018-09-22T14:50:56.671Z,61.10
2018-09-22T14:53:23.600Z,61.21
2018-09-22T14:55:50.161Z,59.14
2018-09-22T14:58:16.694Z,59.51
2018-09-22T15:00:43.202Z,60.34
2018-09-22T15:03:09.819Z,59.78
2018-09-22T15:05:36.397Z,59.64
2018-09-22T15:08:02.877Z,60.38
2018-09-22T15:13:01.224Z,59.15
2018-09-22T15:15:27.703Z,58.17
2018-09-22T15:17:54.403Z,58.50
2018-09-22T15:20:22.156Z,59.20
2018-09-22T15:22:48.777Z,59.62
2018-09-22T15:25:15.748Z,58.86
2018-09-22T15:27:42.330Z,60.01
2018-09-22T15:30:08.934Z,59.66
2018-09-22T15:32:35.461Z,60.49
2018-09-22T15:35:02.087Z,60.14
2018-09-22T15:37:28.644Z,60.05
2018-09-22T15:39:55.281Z,59.79
2018-09-22T15:42:21.817Z,60.83
2018-09-22T15:44:48.377Z,59.77
2018-09-22T15:47:16.189Z,59.88
2018-09-22T15:49:42.866Z,60.20
2018-09-22T15:52:09.978Z,59.43
2018-09-22T15:54:36.800Z,59.16
2018-09-22T15:59:35.620Z,59.99
2018-09-22T16:02:02.193Z,59.07
2018-09-22T16:04:29.585Z,60.32
2018-09-22T16:06:56.284Z,59.66
2018-09-22T16:09:22.826Z,59.30
2018-09-22T16:11:49.325Z,60.02
2018-09-22T16:14:15.805Z,59.50
2018-09-22T16:16:42.364Z,59.53
2018-09-22T16:19:09.106Z,59.71
2018-09-22T16:21:35.761Z,59.55
2018-09-22T16:24:02.386Z,60.19
2018-09-22T16:26:28.862Z,59.27
2018-09-22T16:28:55.515Z,59.13
2018-09-22T16:31:22.224Z,59.85
2018-09-22T16:33:48.803Z,59.35
2018-09-22T16:36:16.847Z,58.69
2018-09-22T16:38:43.422Z,59.59
2018-09-22T16:41:10.077Z,60.00
2018-09-22T16:43:36.754Z,59.27
2018-09-22T16:46:03.431Z,60.21
2018-09-22T16:48:31.632Z,58.99
2018-09-22T16:50:58.254Z,60.46
2018-09-22T16:53:24.735Z,59.74
2018-09-22T16:55:51.553Z,60.48
2018-09-22T16:58:18.138Z,60.26
2018-09-22T17:00:44.660Z,60.25
2018-09-22T17:03:11.451Z,59.87
2018-09-22T17:05:38.203Z,61.09
2018-09-22T17:08:05.067Z,60.51
2018-09-22T17:10:31.728Z,61.20
2018-09-22T17:12:58.865Z,61.61
2018-09-22T17:15:25.677Z,61.82
2018-09-22T17:17:52.542Z,61.58
2018-09-22T17:20:19.534Z,61.06
2018-09-22T17:22:46.378Z,61.63
2018-09-22T17:25:12.914Z,62.18
2018-09-22T17:30:11.639Z,63.37
2018-09-22T17:32:38.256Z,62.74
2018-09-22T17:35:04.787Z,62.38
2018-09-22T17:37:31.944Z,62.29
2018-09-22T17:39:58.518Z,62.56
2018-09-22T17:42:25.334Z,62.79
2018-09-22T17:44:51.947Z,62.05
2018-09-22T17:47:18.445Z,61.31
2018-09-22T17:49:45.138Z,61.75
2018-09-22T17:52:11.744Z,61.61
2018-09-22T17:54:38.289Z,61.67
2018-09-22T17:57:05.651Z,62.08
2018-09-22T17:59:33.492Z,62.36
2018-09-22T18:02:00.883Z,61.84
2018-09-22T18:04:28.253Z,62.48
2018-09-22T18:06:54.856Z,62.54
2018-09-22T18:09:21.361Z,61.96
2018-09-22T18:11:47.888Z,62.43
2018-09-22T18:14:14.505Z,62.10
2018-09-22T18:16:41.072Z,61.20
2018-09-22T18:19:07.788Z,61.74
2018-09-22T18:21:34.313Z,62.70
2018-09-22T18:24:00.780Z,61.98
2018-09-22T18:26:27.338Z,61.77
2018-09-22T18:28:53.849Z,61.60
2018-09-22T18:31:20.441Z,62.32
2018-09-22T18:33:47.033Z,62.29
2018-09-22T18:36:13.533Z,61.74
2018-09-22T18:38:40.355Z,61.97
2018-09-22T18:41:07.144Z,62.34
2018-09-22T18:43:33.763Z,62.09
2018-09-22T18:46:01.272Z,61.75
2018-09-22T18:48:28.672Z,61.43
2018-09-22T18:50:55.192Z,62.96
2018-09-22T18:53:21.819Z,61.95
2018-09-22T18:55:48.405Z,62.15
2018-09-22T18:58:14.940Z,62.83
2018-09-22T19:00:41.474Z,63.37
2018-09-22T19:03:08.030Z,62.89
2018-09-22T19:08:06.673Z,63.89
2018-09-22T19:10:34.181Z,63.52
2018-09-22T19:13:00.823Z,63.34
2018-09-22T19:15:27.269Z,63.29
2018-09-22T19:17:53.829Z,63.54
2018-09-22T19:22:51.942Z,63.05
2018-09-22T19:25:18.502Z,63.45
2018-09-22T19:27:45.160Z,62.67
2018-09-22T19:30:11.785Z,62.10
2018-09-22T19:32:38.305Z,63.54
2018-09-22T19:35:04.872Z,62.78
2018-09-22T19:37:31.621Z,62.03
2018-09-22T19:39:59.207Z,61.96
2018-09-22T19:42:25.789Z,63.14
2018-09-22T19:44:52.513Z,63.50
2018-09-22T19:47:19.212Z,63.75
2018-09-22T19:49:45.752Z,63.04
2018-09-22T19:52:12.337Z,62.42
2018-09-22T19:54:38.870Z,63.03
2018-09-22T19:57:05.407Z,62.85
2018-09-22T19:59:32.256Z,64.44
2018-09-22T20:02:00.484Z,64.84
2018-09-22T20:04:27.134Z,64.11
2018-09-22T20:06:53.727Z,64.31
2018-09-22T20:09:20.328Z,63.87
2018-09-22T20:11:47.284Z,64.16
2018-09-22T20:14:13.810Z,64.42
2018-09-22T20:16:40.324Z,64.36
2018-09-22T20:19:06.918Z,64.17
2018-09-22T20:21:33.503Z,63.64
2018-09-22T20:24:00.272Z,63.01
2018-09-22T20:26:26.868Z,63.57
2018-09-22T20:28:53.376Z,63.51
2018-09-22T20:31:19.987Z,63.95
2018-09-22T20:33:46.574Z,63.41
2018-09-22T20:36:13.155Z,63.83
2018-09-22T20:38:40.397Z,63.85
2018-09-22T20:41:07.795Z,64.00
2018-09-22T20:43:34.519Z,64.64
2018-09-22T20:46:01.929Z,64.74
2018-09-22T20:48:29.204Z,63.86
2018-09-22T20:50:56.036Z,63.75
2018-09-22T20:53:22.572Z,64.04
2018-09-22T20:55:50.115Z,63.55
2018-09-22T20:58:17.329Z,63.51
2018-09-22T21:00:43.832Z,63.99
2018-09-22T21:03:10.351Z,63.69
2018-09-22T21:08:09.197Z,63.77
2018-09-22T21:10:35.956Z,62.33
2018-09-22T21:13:02.523Z,63.00
2018-09-22T21:15:29.192Z,63.03
2018-09-22T21:17:55.665Z,62.70
2018-09-22T21:20:22.158Z,63.84
2018-09-22T21:22:48.778Z,64.37
2018-09-22T21:25:15.246Z,64.04
2018-09-22T21:27:42.604Z,63.97
2018-09-22T21:30:09.193Z,64.19
2018-09-22T21:32:35.707Z,63.96
2018-09-22T21:35:04.367Z,63.41
2018-09-22T21:37:30.905Z,64.00
2018-09-22T21:39:58.049Z,64.50
2018-09-22T21:42:24.560Z,64.36
2018-09-22T21:44:51.071Z,64.21
2018-09-22T21:47:17.645Z,64.18
2018-09-22T21:49:44.690Z,64.14
2018-09-22T21:52:11.255Z,64.06
2018-09-22T21:54:37.815Z,63.95
2018-09-22T21:57:04.339Z,64.30
2018-09-22T21:59:30.923Z,64.94
2018-09-22T22:01:57.435Z,64.82
2018-09-22T22:04:24.041Z,64.68
2018-09-22T22:06:50.529Z,63.79
2018-09-22T22:09:17.011Z,63.99
2018-09-22T22:11:43.519Z,63.32
2018-09-22T22:14:10.261Z,63.30
2018-09-22T22:16:36.838Z,62.67
2018-09-22T22:19:03.419Z,63.85
2018-09-22T22:21:30.049Z,63.79
2018-09-22T22:23:56.680Z,63.99
2018-09-22T22:26:23.238Z,63.61
2018-09-22T22:28:49.833Z,62.85
2018-09-22T22:31:16.324Z,63.86
2018-09-22T22:33:42.862Z,63.54
2018-09-22T22:36:09.473Z,63.84
2018-09-22T22:38:35.953Z,64.40
2018-09-22T22:41:03.852Z,64.02
2018-09-22T22:43:30.343Z,64.92
2018-09-22T22:45:56.811Z,64.19
2018-09-22T22:48:24.660Z,63.66
2018-09-22T22:50:51.312Z,63.42
2018-09-22T22:53:17.857Z,63.80
2018-09-22T22:55:44.348Z,63.23
2018-09-22T22:58:10.842Z,62.41
2018-09-22T23:00:37.717Z,63.22
2018-09-22T23:03:04.371Z,63.63
2018-09-22T23:05:31.028Z,64.67
2018-09-22T23:07:57.491Z,64.42
2018-09-22T23:10:24.059Z,65.03
2018-09-22T23:12:54.606Z,64.25
2018-09-22T23:15:21.108Z,64.97
2018-09-22T23:17:47.710Z,65.18
2018-09-22T23:20:14.189Z,65.12
2018-09-22T23:22:40.813Z,64.02
2018-09-22T23:25:07.515Z,64.92
2018-09-22T23:27:34.320Z,64.39
2018-09-22T23:30:00.912Z,63.79
2018-09-22T23:32:27.468Z,63.37
2018-09-22T23:34:54.091Z,63.05
2018-09-22T23:37:20.720Z,62.99
2018-09-22T23:39:47.233Z,62.71
2018-09-22T23:42:13.764Z,63.50
2018-09-22T23:44:40.260Z,63.48
2018-09-22T23:47:06.861Z,62.97
2018-09-22T23:49:35.380Z,62.85
2018-09-22T23:52:01.930Z,64.26
2018-09-22T23:54:28.563Z,64.46
2018-09-22T23:56:55.341Z,64.48
2018-09-22T23:59:21.832Z,63.97
